sensor_id;sensor_type;location;lat;lon;timestamp;pressure;altitude;pressure_sealevel;temperature;humidity
37238;BME280;23129;49.662;8.448;2024-02-16T00:01:29;100479.69;;;11.99;100.00
37238;BME280;23129;49.662;8.448;2024-02-16T00:03:58;100485.66;;;12.04;100.00
37238;BME280;23129;49.662;8.448;2024-02-16T00:06:27;100480.28;;;12.08;100.00
37238;BME280;23129;49.662;8.448;2024-02-16T00:08:55;100487.97;;;12.15;100.00
37238;BME280;23129;49.662;8.448;2024-02-16T00:11:25;100485.97;;;12.21;100.00
37238;BME280;23129;49.662;8.448;2024-02-16T00:13:56;100481.34;;;12.28;100.00
37238;BME280;23129;49.662;8.448;2024-02-16T00:16:25;100475.88;;;12.34;100.00
37238;BME280;23129;49.662;8.448;2024-02-16T00:18:54;100486.16;;;12.42;100.00
37238;BME280;23129;49.662;8.448;2024-02-16T00:21:23;100484.19;;;12.47;100.00
37238;BME280;23129;49.662;8.448;2024-02-16T00:23:52;100484.06;;;12.51;100.00
37238;BME280;23129;49.662;8.448;2024-02-16T00:26:21;100481.25;;;12.56;100.00
37238;BME280;23129;49.662;8.448;2024-02-16T00:28:50;100470.56;;;12.61;100.00
37238;BME280;23129;49.662;8.448;2024-02-16T00:31:19;100466.97;;;12.63;100.00
37238;BME280;23129;49.662;8.448;2024-02-16T00:33:48;100470.38;;;12.65;100.00
37238;BME280;23129;49.662;8.448;2024-02-16T00:36:18;100468.56;;;12.67;100.00
37238;BME280;23129;49.662;8.448;2024-02-16T00:38:47;100465.00;;;12.68;100.00
37238;BME280;23129;49.662;8.448;2024-02-16T00:41:19;100463.19;;;12.70;100.00
37238;BME280;23129;49.662;8.448;2024-02-16T00:43:48;100459.59;;;12.73;100.00
37238;BME280;23129;49.662;8.448;2024-02-16T00:46:19;100459.56;;;12.74;100.00
37238;BME280;23129;49.662;8.448;2024-02-16T00:48:51;100452.56;;;12.73;100.00
37238;BME280;23129;49.662;8.448;2024-02-16T00:51:21;100456.00;;;12.75;100.00
37238;BME280;23129;49.662;8.448;2024-02-16T00:53:51;100448.13;;;12.74;100.00
37238;BME280;23129;49.662;8.448;2024-02-16T00:56:20;100444.66;;;12.73;100.00
37238;BME280;23129;49.662;8.448;2024-02-16T00:58:49;100450.84;;;12.72;100.00
37238;BME280;23129;49.662;8.448;2024-02-16T01:01:17;100449.13;;;12.71;100.00
37238;BME280;23129;49.662;8.448;2024-02-16T01:03:48;100464.03;;;12.71;100.00
37238;BME280;23129;49.662;8.448;2024-02-16T01:06:20;100460.63;;;12.69;100.00
37238;BME280;23129;49.662;8.448;2024-02-16T01:08:49;100462.44;;;12.67;100.00
37238;BME280;23129;49.662;8.448;2024-02-16T01:11:18;100467.75;;;12.65;100.00
37238;BME280;23129;49.662;8.448;2024-02-16T01:13:47;100460.84;;;12.63;100.00
37238;BME280;23129;49.662;8.448;2024-02-16T01:16:16;100455.69;;;12.60;100.00
37238;BME280;23129;49.662;8.448;2024-02-16T01:18:45;100463.63;;;12.58;100.00
37238;BME280;23129;49.662;8.448;2024-02-16T01:21:14;100464.56;;;12.57;100.00
37238;BME280;23129;49.662;8.448;2024-02-16T01:23:45;100466.38;;;12.55;100.00
37238;BME280;23129;49.662;8.448;2024-02-16T01:26:14;100467.34;;;12.52;100.00
37238;BME280;23129;49.662;8.448;2024-02-16T01:28:42;100471.75;;;12.52;100.00
37238;BME280;23129;49.662;8.448;2024-02-16T01:31:11;100467.41;;;12.51;100.00
37238;BME280;23129;49.662;8.448;2024-02-16T01:33:40;100476.97;;;12.53;100.00
37238;BME280;23129;49.662;8.448;2024-02-16T01:36:09;100475.97;;;12.56;100.00
37238;BME280;23129;49.662;8.448;2024-02-16T01:38:38;100470.72;;;12.56;100.00
37238;BME280;23129;49.662;8.448;2024-02-16T01:41:08;100466.34;;;12.56;100.00
37238;BME280;23129;49.662;8.448;2024-02-16T01:43:38;100473.34;;;12.56;100.00
37238;BME280;23129;49.662;8.448;2024-02-16T01:46:07;100477.72;;;12.57;100.00
37238;BME280;23129;49.662;8.448;2024-02-16T01:48:36;100474.16;;;12.58;100.00
37238;BME280;23129;49.662;8.448;2024-02-16T01:51:07;100475.97;;;12.56;100.00
37238;BME280;23129;49.662;8.448;2024-02-16T01:53:37;100470.72;;;12.56;100.00
37238;BME280;23129;49.662;8.448;2024-02-16T01:56:08;100472.44;;;12.57;100.00
37238;BME280;23129;49.662;8.448;2024-02-16T01:58:37;100474.28;;;12.55;100.00
37238;BME280;23129;49.662;8.448;2024-02-16T02:01:06;100467.31;;;12.54;100.00
37238;BME280;23129;49.662;8.448;2024-02-16T02:03:35;100473.44;;;12.53;100.00
37238;BME280;23129;49.662;8.448;2024-02-16T02:06:04;100474.38;;;12.52;100.00
37238;BME280;23129;49.662;8.448;2024-02-16T02:08:33;100467.44;;;12.49;100.00
37238;BME280;23129;49.662;8.448;2024-02-16T02:11:02;100468.41;;;12.47;100.00
37238;BME280;23129;49.662;8.448;2024-02-16T02:13:32;100471.91;;;12.47;100.00
37238;BME280;23129;49.662;8.448;2024-02-16T02:16:01;100465.78;;;12.47;100.00
37238;BME280;23129;49.662;8.448;2024-02-16T02:18:31;100463.22;;;12.45;100.00
37238;BME280;23129;49.662;8.448;2024-02-16T02:21:00;100464.06;;;12.46;100.00
37238;BME280;23129;49.662;8.448;2024-02-16T02:23:30;100451.84;;;12.45;100.00
37238;BME280;23129;49.662;8.448;2024-02-16T02:25:59;100457.09;;;12.45;100.00
37238;BME280;23129;49.662;8.448;2024-02-16T02:28:28;100454.50;;;12.43;100.00
37238;BME280;23129;49.662;8.448;2024-02-16T02:30:56;100457.22;;;12.42;100.00
37238;BME280;23129;49.662;8.448;2024-02-16T02:33:25;100452.84;;;12.41;100.00
37238;BME280;23129;49.662;8.448;2024-02-16T02:35:54;100455.47;;;12.41;100.00
37238;BME280;23129;49.662;8.448;2024-02-16T02:38:22;100448.50;;;12.40;100.00
37238;BME280;23129;49.662;8.448;2024-02-16T02:40:52;100446.72;;;12.40;100.00
37238;BME280;23129;49.662;8.448;2024-02-16T02:43:21;100444.09;;;12.40;100.00
37238;BME280;23129;49.662;8.448;2024-02-16T02:45:50;100446.72;;;12.40;100.00
37238;BME280;23129;49.662;8.448;2024-02-16T02:48:19;100442.31;;;12.41;100.00
37238;BME280;23129;49.662;8.448;2024-02-16T02:50:48;100439.69;;;12.41;100.00
37238;BME280;23129;49.662;8.448;2024-02-16T02:53:16;100445.81;;;12.41;100.00
37238;BME280;23129;49.662;8.448;2024-02-16T02:55:46;100441.47;;;12.40;100.00
37238;BME280;23129;49.662;8.448;2024-02-16T02:58:16;100438.00;;;12.40;100.00
37238;BME280;23129;49.662;8.448;2024-02-16T03:00:45;100438.00;;;12.40;100.00
37238;BME280;23129;49.662;8.448;2024-02-16T03:03:14;100432.72;;;12.40;100.00
37238;BME280;23129;49.662;8.448;2024-02-16T03:05:43;100426.63;;;12.39;100.00
37238;BME280;23129;49.662;8.448;2024-02-16T03:08:12;100428.44;;;12.37;100.00
37238;BME280;23129;49.662;8.448;2024-02-16T03:10:41;100436.41;;;12.36;100.00
37238;BME280;23129;49.662;8.448;2024-02-16T03:13:11;100435.50;;;12.35;100.00
37238;BME280;23129;49.662;8.448;2024-02-16T03:15:42;100440.84;;;12.33;100.00
37238;BME280;23129;49.662;8.448;2024-02-16T03:18:11;100447.03;;;12.32;100.00
37238;BME280;23129;49.662;8.448;2024-02-16T03:20:40;100452.38;;;12.29;100.00
37238;BME280;23129;49.662;8.448;2024-02-16T03:23:13;100447.22;;;12.26;100.00
37238;BME280;23129;49.662;8.448;2024-02-16T03:25:42;100447.31;;;12.23;100.00
37238;BME280;23129;49.662;8.448;2024-02-16T03:28:12;100449.25;;;12.18;100.00
37238;BME280;23129;49.662;8.448;2024-02-16T03:30:43;100451.19;;;12.13;100.00
37238;BME280;23129;49.662;8.448;2024-02-16T03:33:12;100449.59;;;12.09;100.00
37238;BME280;23129;49.662;8.448;2024-02-16T03:35:41;100455.03;;;12.03;100.00
37238;BME280;23129;49.662;8.448;2024-02-16T03:38:09;100461.25;;;12.00;100.00
37238;BME280;23129;49.662;8.448;2024-02-16T03:40:38;100462.25;;;11.96;100.00
37238;BME280;23129;49.662;8.448;2024-02-16T03:43:07;100452.75;;;11.92;100.00
37238;BME280;23129;49.662;8.448;2024-02-16T03:45:35;100450.22;;;11.91;100.00
37238;BME280;23129;49.662;8.448;2024-02-16T03:48:06;100459.94;;;11.87;100.00
37238;BME280;23129;49.662;8.448;2024-02-16T03:50:36;100462.63;;;11.85;100.00
37238;BME280;23129;49.662;8.448;2024-02-16T03:53:04;100464.41;;;11.83;100.00
37238;BME280;23129;49.662;8.448;2024-02-16T03:55:33;100459.25;;;11.80;100.00
37238;BME280;23129;49.662;8.448;2024-02-16T03:58:04;100466.31;;;11.78;100.00
37238;BME280;23129;49.662;8.448;2024-02-16T04:00:33;100469.03;;;11.75;100.00
37238;BME280;23129;49.662;8.448;2024-02-16T04:03:02;100472.66;;;11.73;100.00
37238;BME280;23129;49.662;8.448;2024-02-16T04:05:33;100477.13;;;11.69;100.00
37238;BME280;23129;49.662;8.448;2024-02-16T04:08:02;100480.69;;;11.66;100.00
37238;BME280;23129;49.662;8.448;2024-02-16T04:10:33;100489.56;;;11.64;100.00
37238;BME280;23129;49.662;8.448;2024-02-16T04:13:02;100476.53;;;11.61;100.00
37238;BME280;23129;49.662;8.448;2024-02-16T04:15:30;100479.25;;;11.58;100.00
37238;BME280;23129;49.662;8.448;2024-02-16T04:17:59;100481.06;;;11.56;100.00
37238;BME280;23129;49.662;8.448;2024-02-16T04:20:28;100481.16;;;11.53;100.00
37238;BME280;23129;49.662;8.448;2024-02-16T04:22:58;100477.72;;;11.51;100.00
37238;BME280;23129;49.662;8.448;2024-02-16T04:25:27;100478.66;;;11.48;100.00
37238;BME280;23129;49.662;8.448;2024-02-16T04:27:55;100483.06;;;11.48;100.00
37238;BME280;23129;49.662;8.448;2024-02-16T04:30:24;100475.28;;;11.45;100.00
37238;BME280;23129;49.662;8.448;2024-02-16T04:32:53;100486.69;;;11.43;100.00
37238;BME280;23129;49.662;8.448;2024-02-16T04:35:22;100486.69;;;11.43;100.00
37238;BME280;23129;49.662;8.448;2024-02-16T04:37:50;100481.44;;;11.43;100.00
37238;BME280;23129;49.662;8.448;2024-02-16T04:40:20;100484.88;;;11.46;100.00
37238;BME280;23129;49.662;8.448;2024-02-16T04:42:49;100482.22;;;11.46;100.00
37238;BME280;23129;49.662;8.448;2024-02-16T04:45:18;100482.22;;;11.46;100.00
37238;BME280;23129;49.662;8.448;2024-02-16T04:47:47;100477.03;;;11.44;100.00
37238;BME280;23129;49.662;8.448;2024-02-16T04:50:16;100481.44;;;11.43;100.00
37238;BME280;23129;49.662;8.448;2024-02-16T04:52:44;100474.44;;;11.42;100.00
37238;BME280;23129;49.662;8.448;2024-02-16T04:55:15;100476.28;;;11.40;100.00
37238;BME280;23129;49.662;8.448;2024-02-16T04:57:46;100478.06;;;11.40;100.00
37238;BME280;23129;49.662;8.448;2024-02-16T05:00:15;100476.38;;;11.37;100.00
37238;BME280;23129;49.662;8.448;2024-02-16T05:02:45;100480.81;;;11.35;100.00
37238;BME280;23129;49.662;8.448;2024-02-16T05:05:14;100479.09;;;11.34;100.00
37238;BME280;23129;49.662;8.448;2024-02-16T05:07:43;100483.53;;;11.32;100.00
37238;BME280;23129;49.662;8.448;2024-02-16T05:10:15;100481.81;;;11.31;100.00
37238;BME280;23129;49.662;8.448;2024-02-16T05:12:45;100478.38;;;11.29;100.00
37238;BME280;23129;49.662;8.448;2024-02-16T05:15:14;100477.53;;;11.29;100.00
37238;BME280;23129;49.662;8.448;2024-02-16T05:17:42;100476.66;;;11.28;100.00
37238;BME280;23129;49.662;8.448;2024-02-16T05:20:15;100478.47;;;11.26;100.00
37238;BME280;23129;49.662;8.448;2024-02-16T05:22:44;100480.28;;;11.24;100.00
37238;BME280;23129;49.662;8.448;2024-02-16T05:25:14;100480.28;;;11.24;100.00
37238;BME280;23129;49.662;8.448;2024-02-16T05:27:43;100477.66;;;11.24;100.00
37238;BME280;23129;49.662;8.448;2024-02-16T05:30:13;100474.13;;;11.25;100.00
37238;BME280;23129;49.662;8.448;2024-02-16T05:33:00;100482.88;;;11.26;100.00
37238;BME280;23129;49.662;8.448;2024-02-16T05:35:40;100476.75;;;11.25;100.00
37238;BME280;23129;49.662;8.448;2024-02-16T05:38:16;100482.00;;;11.25;100.00
37238;BME280;23129;49.662;8.448;2024-02-16T05:41:22;100489.06;;;11.23;100.00
37238;BME280;23129;49.662;8.448;2024-02-16T05:43:51;100485.53;;;11.24;100.00
37238;BME280;23129;49.662;8.448;2024-02-16T05:46:21;100481.19;;;11.23;100.00
37238;BME280;23129;49.662;8.448;2024-02-16T05:48:51;100499.56;;;11.23;100.00
37238;BME280;23129;49.662;8.448;2024-02-16T05:51:19;100496.13;;;11.21;100.00
37238;BME280;23129;49.662;8.448;2024-02-16T05:53:48;100497.94;;;11.19;100.00
37238;BME280;23129;49.662;8.448;2024-02-16T05:56:18;100502.38;;;11.17;100.00
37238;BME280;23129;49.662;8.448;2024-02-16T05:58:46;100495.44;;;11.14;100.00
37238;BME280;23129;49.662;8.448;2024-02-16T06:01:17;100499.00;;;11.12;100.00
37238;BME280;23129;49.662;8.448;2024-02-16T06:03:47;100499.97;;;11.09;100.00
37238;BME280;23129;49.662;8.448;2024-02-16T06:06:16;100505.28;;;11.06;100.00
37238;BME280;23129;49.662;8.448;2024-02-16T06:08:45;100507.16;;;11.03;100.00
37238;BME280;23129;49.662;8.448;2024-02-16T06:11:13;100502.91;;;10.99;100.00
37238;BME280;23129;49.662;8.448;2024-02-16T06:13:43;100501.31;;;10.93;100.00
37238;BME280;23129;49.662;8.448;2024-02-16T06:16:11;100507.56;;;10.89;100.00
37238;BME280;23129;49.662;8.448;2024-02-16T06:18:40;100507.69;;;10.84;100.00
37238;BME280;23129;49.662;8.448;2024-02-16T06:21:11;100510.47;;;10.78;100.00
37238;BME280;23129;49.662;8.448;2024-02-16T06:23:40;100508.03;;;10.72;100.00
37238;BME280;23129;49.662;8.448;2024-02-16T06:26:09;100506.41;;;10.68;100.00
37238;BME280;23129;49.662;8.448;2024-02-16T06:28:39;100524.78;;;10.66;100.00
37238;BME280;23129;49.662;8.448;2024-02-16T06:31:07;100524.00;;;10.63;100.00
37238;BME280;23129;49.662;8.448;2024-02-16T06:33:36;100524.97;;;10.59;100.00
37238;BME280;23129;49.662;8.448;2024-02-16T06:36:05;100522.41;;;10.57;100.00
37238;BME280;23129;49.662;8.448;2024-02-16T06:38:36;100533.91;;;10.53;100.00
37238;BME280;23129;49.662;8.448;2024-02-16T06:41:05;100531.28;;;10.51;100.00
37238;BME280;23129;49.662;8.448;2024-02-16T06:43:33;100535.63;;;10.52;100.00
37238;BME280;23129;49.662;8.448;2024-02-16T06:46:02;100545.31;;;10.50;100.00
37238;BME280;23129;49.662;8.448;2024-02-16T06:48:30;100536.53;;;10.51;100.00
37238;BME280;23129;49.662;8.448;2024-02-16T06:50:59;100534.84;;;10.50;100.00
37238;BME280;23129;49.662;8.448;2024-02-16T06:53:28;100534.00;;;10.48;100.00
37238;BME280;23129;49.662;8.448;2024-02-16T06:55:58;100540.97;;;10.49;100.00
37238;BME280;23129;49.662;8.448;2024-02-16T06:58:27;100547.13;;;10.48;100.00
37238;BME280;23129;49.662;8.448;2024-02-16T07:00:55;100546.19;;;10.51;100.00
37238;BME280;23129;49.662;8.448;2024-02-16T07:03:25;100559.22;;;10.54;100.00
37238;BME280;23129;49.662;8.448;2024-02-16T07:05:55;100560.91;;;10.57;100.00
37238;BME280;23129;49.662;8.448;2024-02-16T07:08:24;100559.00;;;10.62;100.00
37238;BME280;23129;49.662;8.448;2024-02-16T07:10:53;100559.75;;;10.67;100.00
37238;BME280;23129;49.662;8.448;2024-02-16T07:13:24;100567.53;;;10.70;100.00
37238;BME280;23129;49.662;8.448;2024-02-16T07:15:52;100563.03;;;10.75;100.00
37238;BME280;23129;49.662;8.448;2024-02-16T07:18:21;100566.44;;;10.79;100.00
37238;BME280;23129;49.662;8.448;2024-02-16T07:20:50;100574.19;;;10.83;100.00
37238;BME280;23129;49.662;8.448;2024-02-16T07:23:18;100583.66;;;10.89;100.00
37238;BME280;23129;49.662;8.448;2024-02-16T07:25:47;100580.97;;;10.92;100.00
37238;BME280;23129;49.662;8.448;2024-02-16T07:28:16;100579.97;;;10.96;100.00
37238;BME280;23129;49.662;8.448;2024-02-16T07:30:46;100581.66;;;10.99;100.00
37238;BME280;23129;49.662;8.448;2024-02-16T07:33:15;100586.81;;;11.02;100.00
37238;BME280;23129;49.662;8.448;2024-02-16T07:35:44;100591.16;;;11.03;100.00
37238;BME280;23129;49.662;8.448;2024-02-16T07:38:13;100584.09;;;11.05;100.00
37238;BME280;23129;49.662;8.448;2024-02-16T07:40:41;100590.97;;;11.09;100.00
37238;BME280;23129;49.662;8.448;2024-02-16T07:43:13;100583.88;;;11.12;100.00
37238;BME280;23129;49.662;8.448;2024-02-16T07:45:41;100587.28;;;11.16;100.00
37238;BME280;23129;49.662;8.448;2024-02-16T07:48:11;100598.56;;;11.19;100.00
37238;BME280;23129;49.662;8.448;2024-02-16T07:50:40;100596.72;;;11.23;100.00
37238;BME280;23129;49.662;8.448;2024-02-16T07:53:09;100597.44;;;11.28;100.00
37238;BME280;23129;49.662;8.448;2024-02-16T07:55:39;100601.66;;;11.34;100.00
37238;BME280;23129;49.662;8.448;2024-02-16T07:58:08;100602.38;;;11.39;100.00
37238;BME280;23129;49.662;8.448;2024-02-16T08:00:37;100602.16;;;11.47;100.00
37238;BME280;23129;49.662;8.448;2024-02-16T08:03:05;100613.25;;;11.56;100.00
37238;BME280;23129;49.662;8.448;2024-02-16T08:05:37;100610.34;;;11.67;100.00
37238;BME280;23129;49.662;8.448;2024-02-16T08:08:09;100612.63;;;11.78;100.00
37238;BME280;23129;49.662;8.448;2024-02-16T08:10:37;100607.03;;;11.90;100.00
37238;BME280;23129;49.662;8.448;2024-02-16T08:13:06;100603.88;;;12.07;100.00
37238;BME280;23129;49.662;8.448;2024-02-16T08:15:35;100599.94;;;12.20;100.00
37238;BME280;23129;49.662;8.448;2024-02-16T08:18:04;100601.28;;;12.33;100.00
37238;BME280;23129;49.662;8.448;2024-02-16T08:20:34;100611.28;;;12.49;100.00
37238;BME280;23129;49.662;8.448;2024-02-16T08:23:04;100605.38;;;12.69;100.00
37238;BME280;23129;49.662;8.448;2024-02-16T08:25:32;100611.88;;;12.84;100.00
37238;BME280;23129;49.662;8.448;2024-02-16T08:28:01;100608.13;;;12.91;100.00
37238;BME280;23129;49.662;8.448;2024-02-16T08:30:30;100605.25;;;12.97;100.00
37238;BME280;23129;49.662;8.448;2024-02-16T08:32:59;100604.22;;;13.01;100.00
37238;BME280;23129;49.662;8.448;2024-02-16T08:35:28;100611.03;;;13.08;100.00
37238;BME280;23129;49.662;8.448;2024-02-16T08:37:59;100610.81;;;13.14;100.00
37238;BME280;23129;49.662;8.448;2024-02-16T08:40:27;100614.03;;;13.22;100.00
37238;BME280;23129;49.662;8.448;2024-02-16T08:42:56;100618.06;;;13.33;100.00
37238;BME280;23129;49.662;8.448;2024-02-16T08:45:26;100611.63;;;13.65;100.00
37238;BME280;23129;49.662;8.448;2024-02-16T08:47:55;100609.56;;;13.73;100.00
37238;BME280;23129;49.662;8.448;2024-02-16T08:50:25;100613.09;;;13.72;100.00
37238;BME280;23129;49.662;8.448;2024-02-16T08:52:53;100615.09;;;13.65;100.00
37238;BME280;23129;49.662;8.448;2024-02-16T08:55:24;100614.28;;;13.63;100.00
37238;BME280;23129;49.662;8.448;2024-02-16T08:57:52;100620.50;;;13.62;100.00
37238;BME280;23129;49.662;8.448;2024-02-16T09:00:21;100611.72;;;13.62;100.00
37238;BME280;23129;49.662;8.448;2024-02-16T09:02:50;100609.13;;;13.60;100.00
37238;BME280;23129;49.662;8.448;2024-02-16T09:05:19;100608.41;;;13.57;100.00
37238;BME280;23129;49.662;8.448;2024-02-16T09:07:48;100611.09;;;13.55;100.00
37238;BME280;23129;49.662;8.448;2024-02-16T09:10:17;100609.44;;;13.53;100.00
37238;BME280;23129;49.662;8.448;2024-02-16T09:12:46;100607.66;;;13.53;100.00
37238;BME280;23129;49.662;8.448;2024-02-16T09:15:15;100611.16;;;13.54;100.00
37238;BME280;23129;49.662;8.448;2024-02-16T09:17:45;100609.25;;;13.57;100.00
37238;BME280;23129;49.662;8.448;2024-02-16T09:20:14;100621.53;;;13.58;100.00
37238;BME280;23129;49.662;8.448;2024-02-16T09:22:43;100614.53;;;13.57;100.00
37238;BME280;23129;49.662;8.448;2024-02-16T09:25:14;100618.13;;;13.55;100.00
37238;BME280;23129;49.662;8.448;2024-02-16T09:27:43;100627.78;;;13.56;100.00
37238;BME280;23129;49.662;8.448;2024-02-16T09:30:15;100630.34;;;13.57;100.00
37238;BME280;23129;49.662;8.448;2024-02-16T09:32:44;100632.00;;;13.60;100.00
37238;BME280;23129;49.662;8.448;2024-02-16T09:35:13;100638.94;;;13.62;100.00
37238;BME280;23129;49.662;8.448;2024-02-16T09:37:41;100640.53;;;13.66;100.00
37238;BME280;23129;49.662;8.448;2024-02-16T09:40:12;100635.16;;;13.69;100.00
37238;BME280;23129;49.662;8.448;2024-02-16T09:42:41;100641.91;;;13.77;100.00
37238;BME280;23129;49.662;8.448;2024-02-16T09:45:14;100646.97;;;13.83;100.00
37238;BME280;23129;49.662;8.448;2024-02-16T09:47:43;100658.84;;;13.93;100.00
37238;BME280;23129;49.662;8.448;2024-02-16T09:50:27;100656.72;;;14.03;100.00
37238;BME280;23129;49.662;8.448;2024-02-16T09:52:57;100666.88;;;14.13;100.00
37238;BME280;23129;49.662;8.448;2024-02-16T09:55:26;100671.66;;;14.26;100.00
37238;BME280;23129;49.662;8.448;2024-02-16T09:58:01;100667.75;;;14.36;100.00
37238;BME280;23129;49.662;8.448;2024-02-16T10:00:33;100668.88;;;14.52;100.00
37238;BME280;23129;49.662;8.448;2024-02-16T10:03:02;100670.88;;;14.68;100.00
37238;BME280;23129;49.662;8.448;2024-02-16T10:05:31;100676.63;;;14.99;100.00
37238;BME280;23129;49.662;8.448;2024-02-16T10:08:00;100672.09;;;15.42;100.00
37238;BME280;23129;49.662;8.448;2024-02-16T10:10:39;100668.63;;;15.81;100.00
37238;BME280;23129;49.662;8.448;2024-02-16T10:13:08;100677.63;;;16.15;100.00
37238;BME280;23129;49.662;8.448;2024-02-16T10:15:39;100675.72;;;16.55;100.00
37238;BME280;23129;49.662;8.448;2024-02-16T10:18:08;100675.47;;;16.96;100.00
37238;BME280;23129;49.662;8.448;2024-02-16T10:20:38;100673.97;;;17.25;100.00
37238;BME280;23129;49.662;8.448;2024-02-16T10:23:10;100680.88;;;17.62;100.00
37238;BME280;23129;49.662;8.448;2024-02-16T10:25:39;100683.75;;;17.91;100.00
37238;BME280;23129;49.662;8.448;2024-02-16T10:28:09;100677.19;;;17.98;100.00
37238;BME280;23129;49.662;8.448;2024-02-16T10:30:42;100683.25;;;18.00;100.00
37238;BME280;23129;49.662;8.448;2024-02-16T10:33:11;100686.41;;;17.91;100.00
37238;BME280;23129;49.662;8.448;2024-02-16T10:35:41;100695.19;;;17.75;100.00
37238;BME280;23129;49.662;8.448;2024-02-16T10:38:12;100695.22;;;17.58;100.00
37238;BME280;23129;49.662;8.448;2024-02-16T10:40:41;100695.00;;;17.45;100.00
37238;BME280;23129;49.662;8.448;2024-02-16T10:43:14;100697.13;;;17.39;100.00
37238;BME280;23129;49.662;8.448;2024-02-16T10:45:45;100712.91;;;17.24;100.00
37238;BME280;23129;49.662;8.448;2024-02-16T10:48:16;100710.19;;;17.08;100.00
37238;BME280;23129;49.662;8.448;2024-02-16T10:50:45;100704.84;;;16.91;100.00
37238;BME280;23129;49.662;8.448;2024-02-16T10:53:22;100710.03;;;16.75;100.00
37238;BME280;23129;49.662;8.448;2024-02-16T10:55:52;100703.75;;;16.59;100.00
37238;BME280;23129;49.662;8.448;2024-02-16T10:58:21;100707.78;;;16.49;100.00
37238;BME280;23129;49.662;8.448;2024-02-16T11:00:53;100708.16;;;16.41;100.00
37238;BME280;23129;49.662;8.448;2024-02-16T11:03:23;100712.09;;;16.32;100.00
37238;BME280;23129;49.662;8.448;2024-02-16T11:05:53;100702.66;;;16.27;100.00
37238;BME280;23129;49.662;8.448;2024-02-16T11:08:24;100707.25;;;16.23;100.00
37238;BME280;23129;49.662;8.448;2024-02-16T11:10:57;100710.69;;;16.25;100.00
37238;BME280;23129;49.662;8.448;2024-02-16T11:13:26;100714.09;;;16.27;100.00
37238;BME280;23129;49.662;8.448;2024-02-16T11:16:00;100705.16;;;16.30;100.00
37238;BME280;23129;49.662;8.448;2024-02-16T11:18:30;100708.53;;;16.33;100.00
37238;BME280;23129;49.662;8.448;2024-02-16T11:21:03;100713.69;;;16.36;100.00
37238;BME280;23129;49.662;8.448;2024-02-16T11:23:35;100715.09;;;16.43;100.00
37238;BME280;23129;49.662;8.448;2024-02-16T11:26:05;100710.22;;;16.53;100.00
37238;BME280;23129;49.662;8.448;2024-02-16T11:28:41;100714.84;;;16.67;100.00
37238;BME280;23129;49.662;8.448;2024-02-16T11:31:11;100714.16;;;17.00;100.00
37238;BME280;23129;49.662;8.448;2024-02-16T11:33:44;100709.44;;;17.57;100.00
37238;BME280;23129;49.662;8.448;2024-02-16T11:36:16;100714.69;;;18.39;100.00
37238;BME280;23129;49.662;8.448;2024-02-16T11:38:47;100718.41;;;19.14;100.00
37238;BME280;23129;49.662;8.448;2024-02-16T11:41:15;100705.94;;;19.74;100.00
37238;BME280;23129;49.662;8.448;2024-02-16T11:43:44;100697.63;;;20.21;100.00
37238;BME280;23129;49.662;8.448;2024-02-16T11:46:15;100702.47;;;20.70;100.00
37238;BME280;23129;49.662;8.448;2024-02-16T11:48:45;100708.50;;;21.00;100.00
37238;BME280;23129;49.662;8.448;2024-02-16T11:51:15;100704.09;;;21.13;100.00
37238;BME280;23129;49.662;8.448;2024-02-16T11:53:54;100698.53;;;21.16;100.00
37238;BME280;23129;49.662;8.448;2024-02-16T11:56:23;100693.75;;;21.34;100.00
37238;BME280;23129;49.662;8.448;2024-02-16T11:58:53;100695.06;;;21.54;100.00
37238;BME280;23129;49.662;8.448;2024-02-16T12:01:23;100688.44;;;21.47;100.00
37238;BME280;23129;49.662;8.448;2024-02-16T12:03:52;100694.88;;;21.04;100.00
37238;BME280;23129;49.662;8.448;2024-02-16T12:06:21;100699.22;;;20.52;100.00
37238;BME280;23129;49.662;8.448;2024-02-16T12:08:51;100690.88;;;20.16;100.00
37238;BME280;23129;49.662;8.448;2024-02-16T12:11:21;100700.16;;;19.96;100.00
37238;BME280;23129;49.662;8.448;2024-02-16T12:13:51;100697.31;;;19.84;100.00
37238;BME280;23129;49.662;8.448;2024-02-16T12:16:20;100702.63;;;19.99;100.00
37238;BME280;23129;49.662;8.448;2024-02-16T12:18:50;100699.06;;;20.27;100.00
37238;BME280;23129;49.662;8.448;2024-02-16T12:21:19;100695.63;;;20.66;100.00
37238;BME280;23129;49.662;8.448;2024-02-16T12:23:48;100691.66;;;20.86;100.00
37238;BME280;23129;49.662;8.448;2024-02-16T12:26:17;100690.19;;;21.08;100.00
37238;BME280;23129;49.662;8.448;2024-02-16T12:28:46;100701.28;;;21.02;100.00
37238;BME280;23129;49.662;8.448;2024-02-16T12:31:19;100688.84;;;20.88;100.00
37238;BME280;23129;49.662;8.448;2024-02-16T12:33:49;100687.69;;;20.79;100.00
37238;BME280;23129;49.662;8.448;2024-02-16T12:36:19;100688.59;;;20.65;100.00
37238;BME280;23129;49.662;8.448;2024-02-16T12:38:47;100691.78;;;20.43;100.00
37238;BME280;23129;49.662;8.448;2024-02-16T12:41:16;100699.44;;;20.21;100.00
37238;BME280;23129;49.662;8.448;2024-02-16T12:43:45;100686.16;;;20.06;100.00
37238;BME280;23129;49.662;8.448;2024-02-16T12:46:14;100690.53;;;20.08;100.00
37238;BME280;23129;49.662;8.448;2024-02-16T12:48:42;100691.13;;;19.98;100.00
37238;BME280;23129;49.662;8.448;2024-02-16T12:51:18;100690.94;;;19.87;100.00
37238;BME280;23129;49.662;8.448;2024-02-16T12:53:46;100691.91;;;19.72;100.00